createdAt,value
2023-01-20T00:00:35.158Z,-29.30
2023-01-20T00:03:38.829Z,-29.28
2023-01-20T00:06:42.546Z,-29.32
2023-01-20T00:09:46.695Z,-29.32
2023-01-20T00:12:50.432Z,-29.32
2023-01-20T00:15:53.985Z,-29.35
2023-01-20T00:18:57.035Z,-29.35
2023-01-20T00:22:01.265Z,-29.39
2023-01-20T00:25:04.692Z,-29.46
2023-01-20T00:28:08.171Z,-29.53
2023-01-20T00:31:12.404Z,-29.58
2023-01-20T00:34:16.886Z,-29.59
2023-01-20T00:37:20.736Z,-29.62
2023-01-20T00:40:24.513Z,-29.60
2023-01-20T00:43:28.690Z,-29.56
2023-01-20T00:46:33.418Z,-29.55
2023-01-20T00:49:36.909Z,-29.53
2023-01-20T00:52:41.142Z,-29.48
2023-01-20T00:55:44.375Z,-29.46
2023-01-20T00:58:48.299Z,-29.52
2023-01-20T01:01:51.695Z,-29.63
2023-01-20T01:04:55.762Z,-29.71
2023-01-20T01:07:59.337Z,-29.79
2023-01-20T01:11:03.906Z,-29.86
2023-01-20T01:14:07.026Z,-29.69
2023-01-20T01:17:10.936Z,-29.56
2023-01-20T01:20:14.677Z,-29.42
2023-01-20T01:23:18.447Z,-29.34
2023-01-20T01:26:22.267Z,-29.22
2023-01-20T01:29:26.588Z,-29.07
2023-01-20T01:32:30.065Z,-29.01
2023-01-20T01:35:33.952Z,-28.87
2023-01-20T01:38:37.767Z,-28.84
2023-01-20T01:41:41.204Z,-28.71
2023-01-20T01:45:12.945Z,-28.55
2023-01-20T01:48:18.713Z,-28.48
2023-01-20T01:51:26.614Z,-28.40
2023-01-20T01:54:38.434Z,-28.34
2023-01-20T01:57:47.306Z,-28.30
2023-01-20T02:00:51.143Z,-28.28
2023-01-20T02:04:00.585Z,-28.30
2023-01-20T02:07:08.915Z,-28.28
2023-01-20T02:10:13.471Z,-28.18
2023-01-20T02:13:17.310Z,-28.14
2023-01-20T02:16:35.977Z,-28.10
2023-01-20T02:20:03.455Z,-28.09
2023-01-20T02:23:11.979Z,-27.93
2023-01-20T02:26:52.874Z,-27.84
2023-01-20T02:30:38.116Z,-27.78
2023-01-20T02:34:01.622Z,-27.68
2023-01-20T02:37:05.401Z,-27.53
2023-01-20T02:41:01.469Z,-27.31
2023-01-20T02:44:18.897Z,-27.19
2023-01-20T02:47:40.531Z,-27.24
2023-01-20T02:51:02.108Z,-27.30
2023-01-20T02:54:09.310Z,-27.40
2023-01-20T02:57:19.300Z,-27.34
2023-01-20T03:00:32.359Z,-27.31
2023-01-20T03:03:39.088Z,-27.30
2023-01-20T03:06:49.916Z,-27.23
2023-01-20T03:09:57.812Z,-27.00
2023-01-20T03:13:22.663Z,-26.88
2023-01-20T03:16:28.546Z,-26.74
2023-01-20T03:19:31.552Z,-26.58
2023-01-20T03:22:35.192Z,-26.67
2023-01-20T03:25:39.755Z,-26.41
2023-01-20T03:28:45.218Z,-26.25
2023-01-20T03:31:57.330Z,-26.07
2023-01-20T03:35:01.130Z,-25.87
2023-01-20T03:38:04.222Z,-25.69
2023-01-20T03:41:25.154Z,-25.49
2023-01-20T03:44:31.260Z,-25.39
2023-01-20T03:47:59.213Z,-25.28
2023-01-20T03:51:18.244Z,-25.20
2023-01-20T03:54:26.969Z,-25.22
2023-01-20T03:57:41.512Z,-25.34
2023-01-20T04:00:48.371Z,-25.30
2023-01-20T04:03:54.709Z,-25.20
2023-01-20T04:07:03.467Z,-25.08
2023-01-20T04:10:27.994Z,-24.86
2023-01-20T04:13:31.822Z,-24.83
2023-01-20T04:16:35.076Z,-24.75
2023-01-20T04:19:40.957Z,-24.62
2023-01-20T04:22:52.379Z,-24.41
2023-01-20T04:25:55.852Z,-24.37
2023-01-20T04:28:59.352Z,-24.17
2023-01-20T04:32:04.666Z,-24.14
2023-01-20T04:35:08.689Z,-24.24
2023-01-20T04:38:12.141Z,-24.07
2023-01-20T04:41:15.049Z,-23.92
2023-01-20T04:44:17.972Z,-23.74
2023-01-20T04:47:20.893Z,-23.89
2023-01-20T04:50:25.021Z,-24.04
2023-01-20T04:53:28.467Z,-23.97
2023-01-20T04:56:32.064Z,-23.72
2023-01-20T04:59:35.117Z,-23.74
2023-01-20T05:02:38.424Z,-23.43
2023-01-20T05:05:41.917Z,-23.33
2023-01-20T05:08:44.937Z,-23.19
2023-01-20T05:11:47.944Z,-23.03
2023-01-20T05:14:50.980Z,-22.92
2023-01-20T05:17:53.959Z,-22.96
2023-01-20T05:20:57.277Z,-22.94
2023-01-20T05:24:00.753Z,-22.68
2023-01-20T05:27:04.312Z,-22.71
2023-01-20T05:30:08.443Z,-22.74
2023-01-20T05:33:12.208Z,-22.92
2023-01-20T05:36:15.688Z,-22.85
2023-01-20T05:39:20.311Z,-22.89
2023-01-20T05:42:23.960Z,-22.81
2023-01-20T05:45:28.297Z,-22.53
2023-01-20T05:48:33.576Z,-22.39
2023-01-20T05:51:36.715Z,-22.34
2023-01-20T05:54:41.424Z,-22.30
2023-01-20T05:57:45.028Z,-21.98
2023-01-20T06:00:48.593Z,-21.86
2023-01-20T06:03:52.149Z,-21.81
2023-01-20T06:06:55.583Z,-21.49
2023-01-20T06:09:59.679Z,-21.33
2023-01-20T06:13:03.438Z,-21.11
2023-01-20T06:16:08.178Z,-20.94
2023-01-20T06:19:11.207Z,-20.78
2023-01-20T06:22:16.555Z,-20.71
2023-01-20T06:25:20.078Z,-20.56
2023-01-20T06:28:23.860Z,-20.53
2023-01-20T06:31:29.094Z,-20.60
2023-01-20T06:34:33.186Z,-20.78
2023-01-20T06:37:37.086Z,-20.75
2023-01-20T06:40:41.080Z,-20.74
2023-01-20T06:43:45.037Z,-20.59
2023-01-20T06:46:48.497Z,-20.45
2023-01-20T06:49:52.138Z,-20.29
2023-01-20T06:52:56.826Z,-20.32
2023-01-20T06:56:02.180Z,-20.19
2023-01-20T06:59:05.935Z,-20.09
2023-01-20T07:02:14.750Z,-19.98
2023-01-20T07:05:18.711Z,-19.86
2023-01-20T07:08:21.826Z,-19.88
2023-01-20T07:11:25.247Z,-20.00
2023-01-20T07:14:28.828Z,-20.02
2023-01-20T07:17:32.822Z,-20.14
2023-01-20T07:20:36.616Z,-20.36
2023-01-20T07:23:41.005Z,-20.56
2023-01-20T07:26:44.741Z,-20.63
2023-01-20T07:29:48.808Z,-20.70
2023-01-20T07:32:52.655Z,-20.84
2023-01-20T07:35:56.681Z,-20.98
2023-01-20T07:39:00.541Z,-21.11
2023-01-20T07:42:03.939Z,-21.12
2023-01-20T07:45:08.248Z,-21.29
2023-01-20T07:48:11.956Z,-21.39
2023-01-20T07:51:17.108Z,-21.46
2023-01-20T07:54:20.727Z,-21.70
2023-01-20T07:57:24.495Z,-21.81
2023-01-20T08:00:28.545Z,-21.78
2023-01-20T08:03:32.079Z,-21.86
2023-01-20T08:06:36.222Z,-21.95
2023-01-20T08:09:42.054Z,-21.96
2023-01-20T08:12:46.895Z,-22.23
2023-01-20T08:15:49.887Z,-22.36
2023-01-20T08:18:55.708Z,-22.32
2023-01-20T08:21:59.405Z,-22.30
2023-01-20T08:25:03.697Z,-22.37
2023-01-20T08:28:07.436Z,-22.68
2023-01-20T08:31:14.379Z,-22.82
2023-01-20T08:34:19.428Z,-23.02
2023-01-20T08:37:24.211Z,-23.24
2023-01-20T08:40:28.318Z,-23.26
2023-01-20T08:43:32.444Z,-23.28
2023-01-20T08:46:41.202Z,-23.45
2023-01-20T08:49:45.798Z,-23.54
2023-01-20T08:52:51.627Z,-23.58
2023-01-20T08:56:02.895Z,-23.82
2023-01-20T08:59:08.477Z,-23.92
2023-01-20T09:02:12.706Z,-23.86
2023-01-20T09:05:16.549Z,-23.97
2023-01-20T09:08:21.510Z,-23.92
2023-01-20T09:11:28.217Z,-23.88
2023-01-20T09:14:32.007Z,-23.85
2023-01-20T09:17:37.991Z,-23.81
2023-01-20T09:20:41.551Z,-23.79
2023-01-20T09:23:47.582Z,-23.79
2023-01-20T09:26:51.414Z,-23.86
2023-01-20T09:29:55.084Z,-23.89
2023-01-20T09:33:00.049Z,-23.92
2023-01-20T09:36:04.930Z,-23.97
2023-01-20T09:39:26.874Z,-24.03
2023-01-20T09:43:23.763Z,-24.12
2023-01-20T09:47:11.949Z,-24.20
2023-01-20T09:50:44.113Z,-24.28
2023-01-20T09:53:53.825Z,-24.35
2023-01-20T09:56:59.924Z,-24.44
2023-01-20T10:00:23.088Z,-24.63
2023-01-20T10:03:44.979Z,-24.63
2023-01-20T10:07:11.838Z,-24.71
2023-01-20T10:10:49.131Z,-24.75
2023-01-20T10:14:35.160Z,-24.68
2023-01-20T10:17:41.966Z,-24.71
2023-01-20T10:21:05.839Z,-24.69
2023-01-20T10:24:19.292Z,-24.66
2023-01-20T10:27:27.346Z,-24.72
2023-01-20T10:30:39.314Z,-24.75
2023-01-20T10:33:46.194Z,-24.76
2023-01-20T10:37:12.297Z,-24.77
2023-01-20T10:41:07.272Z,-24.86
2023-01-20T10:44:14.304Z,-24.90
2023-01-20T10:47:54.351Z,-24.90
2023-01-20T10:51:13.650Z,-24.93
2023-01-20T10:54:48.288Z,-25.01
2023-01-20T10:58:15.730Z,-24.96
2023-01-20T11:01:20.876Z,-24.96
2023-01-20T11:04:24.019Z,-25.00
2023-01-20T11:07:28.843Z,-25.01
2023-01-20T11:10:35.392Z,-24.96
2023-01-20T11:13:40.420Z,-25.04
2023-01-20T11:16:47.871Z,-25.15
2023-01-20T11:19:55.126Z,-25.25
2023-01-20T11:23:02.103Z,-25.27
2023-01-20T11:26:37.145Z,-25.15
2023-01-20T11:29:48.933Z,-25.12
2023-01-20T11:33:22.740Z,-25.21
2023-01-20T11:36:27.927Z,-25.11
2023-01-20T11:39:58.583Z,-24.99
2023-01-20T11:43:02.084Z,-24.90
2023-01-20T11:46:14.359Z,-24.86
2023-01-20T11:49:23.810Z,-24.82
2023-01-20T11:52:27.863Z,-24.73
2023-01-20T11:55:31.987Z,-24.69
2023-01-20T11:58:50.881Z,-24.69
2023-01-20T12:02:10.049Z,-24.71
2023-01-20T12:05:27.623Z,-24.63
2023-01-20T12:09:03.236Z,-24.48
2023-01-20T12:12:23.722Z,-24.41
2023-01-20T12:15:43.760Z,-24.33
2023-01-20T12:19:02.087Z,-24.25
2023-01-20T12:22:14.529Z,-24.23
2023-01-20T12:25:31.435Z,-24.18
2023-01-20T12:28:52.483Z,-24.13
2023-01-20T12:31:56.758Z,-24.07
2023-01-20T12:35:02.790Z,-24.06
2023-01-20T12:38:09.143Z,-24.04
2023-01-20T12:41:45.407Z,-24.02
2023-01-20T12:44:58.828Z,-24.04
2023-01-20T12:48:38.958Z,-24.04
2023-01-20T12:51:59.264Z,-24.02
2023-01-20T12:55:14.655Z,-24.00
2023-01-20T12:58:20.488Z,-24.00
2023-01-20T13:01:32.821Z,-24.03
2023-01-20T13:04:45.419Z,-24.04
2023-01-20T13:08:07.748Z,-24.06
2023-01-20T13:11:24.559Z,-24.04
2023-01-20T13:14:40.252Z,-24.02
2023-01-20T13:17:51.784Z,-23.90
2023-01-20T13:20:56.674Z,-23.88
2023-01-20T13:24:02.789Z,-23.85
2023-01-20T13:27:06.187Z,-23.79
2023-01-20T13:30:44.039Z,-23.72
2023-01-20T13:33:47.205Z,-23.72
2023-01-20T13:37:03.919Z,-23.72
2023-01-20T13:40:33.429Z,-23.71
2023-01-20T13:43:44.535Z,-23.81
2023-01-20T13:46:50.517Z,-23.88
2023-01-20T13:49:55.649Z,-23.88
2023-01-20T13:53:03.679Z,-23.86
2023-01-20T13:56:33.904Z,-23.86
2023-01-20T13:59:38.018Z,-23.90
2023-01-20T14:02:41.751Z,-23.88
2023-01-20T14:05:56.608Z,-23.92
2023-01-20T14:09:02.428Z,-23.95
2023-01-20T14:12:06.432Z,-23.99
2023-01-20T14:15:31.853Z,-23.93
2023-01-20T14:18:34.981Z,-23.90
2023-01-20T14:21:44.482Z,-23.85
2023-01-20T14:24:50.141Z,-23.82
2023-01-20T14:27:54.007Z,-23.85
2023-01-20T14:31:21.079Z,-23.90
2023-01-20T14:34:34.034Z,-23.96
2023-01-20T14:37:39.706Z,-24.20
2023-01-20T14:40:44.001Z,-24.13
2023-01-20T14:43:47.419Z,-24.10
2023-01-20T14:46:57.670Z,-24.27
2023-01-20T14:50:02.159Z,-24.61
2023-01-20T14:53:05.659Z,-24.66
2023-01-20T14:56:20.120Z,-24.71
2023-01-20T14:59:25.120Z,-24.53
2023-01-20T15:02:34.956Z,-24.42
2023-01-20T15:05:42.388Z,-24.30
2023-01-20T15:09:04.383Z,-24.20
2023-01-20T15:12:34.701Z,-24.14
2023-01-20T15:15:38.481Z,-24.27
2023-01-20T15:18:43.105Z,-24.34
2023-01-20T15:21:56.903Z,-24.33
2023-01-20T15:25:13.407Z,-24.24
2023-01-20T15:28:44.066Z,-24.27
2023-01-20T15:31:47.761Z,-24.25
2023-01-20T15:34:51.213Z,-24.41
2023-01-20T15:37:55.805Z,-24.44
2023-01-20T15:40:59.924Z,-24.42
2023-01-20T15:44:03.624Z,-24.33
2023-01-20T15:47:42.142Z,-24.23
2023-01-20T15:50:46.237Z,-24.09
2023-01-20T15:53:50.596Z,-24.16
2023-01-20T15:56:54.656Z,-24.14
2023-01-20T15:59:58.013Z,-24.02
2023-01-20T16:03:01.796Z,-23.95
2023-01-20T16:06:11.722Z,-23.83
2023-01-20T16:09:20.898Z,-23.83
2023-01-20T16:12:25.242Z,-24.04
2023-01-20T16:15:28.668Z,-24.02
2023-01-20T16:18:32.772Z,-24.03
2023-01-20T16:21:36.694Z,-23.96
2023-01-20T16:24:42.168Z,-23.89
2023-01-20T16:27:45.877Z,-23.82
2023-01-20T16:30:50.290Z,-23.79
2023-01-20T16:33:54.796Z,-23.75
2023-01-20T16:36:59.033Z,-23.75
2023-01-20T16:40:02.520Z,-23.79
2023-01-20T16:43:06.855Z,-23.74
2023-01-20T16:46:22.709Z,-23.74
2023-01-20T16:49:25.859Z,-23.74
2023-01-20T16:52:29.033Z,-23.75
2023-01-20T16:55:32.190Z,-23.69
2023-01-20T16:58:35.266Z,-23.65
2023-01-20T17:01:39.237Z,-23.58
2023-01-20T17:04:42.430Z,-23.55
2023-01-20T17:07:46.536Z,-23.53
2023-01-20T17:10:50.222Z,-23.68
2023-01-20T17:13:56.547Z,-23.74
2023-01-20T17:17:00.674Z,-23.71
2023-01-20T17:20:03.933Z,-23.74
2023-01-20T17:23:07.036Z,-23.79
2023-01-20T17:26:10.851Z,-23.85
2023-01-20T17:29:14.273Z,-24.06
2023-01-20T17:32:18.770Z,-24.16
2023-01-20T17:35:22.479Z,-24.31
2023-01-20T17:38:26.866Z,-24.38
2023-01-20T17:41:31.283Z,-24.48
2023-01-20T17:44:38.468Z,-24.56
2023-01-20T17:47:43.416Z,-24.61
2023-01-20T17:50:47.765Z,-24.75
2023-01-20T17:53:53.010Z,-24.87
2023-01-20T17:56:57.427Z,-25.01
2023-01-20T18:00:01.554Z,-25.01
2023-01-20T18:03:07.599Z,-24.93
2023-01-20T18:06:13.267Z,-24.99
2023-01-20T18:09:16.390Z,-25.06
2023-01-20T18:12:21.444Z,-25.17
2023-01-20T18:15:24.969Z,-25.21
2023-01-20T18:18:28.341Z,-25.35
2023-01-20T18:21:39.048Z,-25.49
2023-01-20T18:24:43.188Z,-25.67
2023-01-20T18:27:46.785Z,-25.79
2023-01-20T18:30:50.689Z,-25.70
2023-01-20T18:33:56.340Z,-25.66
2023-01-20T18:36:59.364Z,-25.55
2023-01-20T18:40:02.374Z,-25.66
2023-01-20T18:43:06.707Z,-25.67
2023-01-20T18:46:10.521Z,-25.62
2023-01-20T18:49:18.711Z,-25.58
2023-01-20T18:52:22.165Z,-25.52
2023-01-20T18:55:25.870Z,-25.46
2023-01-20T18:58:29.828Z,-25.38
2023-01-20T19:01:40.442Z,-25.32
2023-01-20T19:04:43.344Z,-25.34
2023-01-20T19:07:51.261Z,-25.34
2023-01-20T19:10:54.901Z,-25.32
2023-01-20T19:14:00.055Z,-25.38
2023-01-20T19:17:03.670Z,-25.46
2023-01-20T19:20:08.207Z,-25.56
2023-01-20T19:23:11.948Z,-25.63
2023-01-20T19:26:15.799Z,-25.70
2023-01-20T19:29:20.355Z,-25.71
2023-01-20T19:32:24.555Z,-25.83
2023-01-20T19:35:29.242Z,-25.87
2023-01-20T19:38:35.144Z,-25.94
2023-01-20T19:41:40.018Z,-25.98
2023-01-20T19:44:43.331Z,-26.04
2023-01-20T19:47:47.087Z,-26.12
2023-01-20T19:50:51.094Z,-26.15
2023-01-20T19:53:59.561Z,-26.22
2023-01-20T19:57:03.498Z,-26.28
2023-01-20T20:00:07.563Z,-26.40
2023-01-20T20:03:14.742Z,-26.39
2023-01-20T20:06:24.355Z,-26.43
2023-01-20T20:09:28.972Z,-26.46
2023-01-20T20:12:33.157Z,-26.58
2023-01-20T20:15:36.796Z,-26.65
2023-01-20T20:18:40.720Z,-26.74
2023-01-20T20:21:45.397Z,-26.78
2023-01-20T20:24:49.089Z,-26.81
2023-01-20T20:27:53.068Z,-26.85
2023-01-20T20:30:56.792Z,-26.91
2023-01-20T20:34:01.691Z,-27.06
2023-01-20T20:37:05.598Z,-27.16
2023-01-20T20:40:11.545Z,-27.22
2023-01-20T20:43:14.651Z,-27.26
2023-01-20T20:46:18.885Z,-27.27
2023-01-20T20:49:24.137Z,-27.31
2023-01-20T20:52:27.204Z,-27.28
2023-01-20T20:55:30.789Z,-27.31
2023-01-20T20:58:34.426Z,-27.20
2023-01-20T21:01:38.475Z,-27.19
2023-01-20T21:04:41.654Z,-27.22
2023-01-20T21:07:44.893Z,-27.27
2023-01-20T21:10:47.925Z,-27.38
2023-01-20T21:13:50.944Z,-27.44
2023-01-20T21:16:54.749Z,-27.55
2023-01-20T21:19:58.893Z,-27.65
2023-01-20T21:23:02.683Z,-27.76
2023-01-20T21:26:11.510Z,-27.92
2023-01-20T21:29:15.317Z,-27.97
2023-01-20T21:32:18.903Z,-28.06
2023-01-20T21:35:21.936Z,-28.09
2023-01-20T21:38:26.016Z,-28.13
2023-01-20T21:41:29.459Z,-28.27
2023-01-20T21:44:37.309Z,-28.41
2023-01-20T21:47:43.729Z,-28.40
2023-01-20T21:51:05.631Z,-28.44
2023-01-20T21:54:09.242Z,-28.52
2023-01-20T21:57:13.335Z,-28.48
2023-01-20T22:00:17.557Z,-28.43
2023-01-20T22:03:21.435Z,-28.47
2023-01-20T22:06:25.271Z,-28.44
2023-01-20T22:09:29.671Z,-28.40
2023-01-20T22:12:35.139Z,-28.41
2023-01-20T22:15:40.342Z,-28.45
2023-01-20T22:18:46.561Z,-28.47
2023-01-20T22:21:50.375Z,-28.45
2023-01-20T22:24:53.838Z,-28.44
2023-01-20T22:27:57.819Z,-28.48
2023-01-20T22:31:12.971Z,-28.49
2023-01-20T22:34:16.550Z,-28.55
2023-01-20T22:37:20.021Z,-28.58
2023-01-20T22:40:23.904Z,-28.73
2023-01-20T22:43:27.635Z,-28.79
2023-01-20T22:46:31.640Z,-28.82
2023-01-20T22:49:34.875Z,-28.92
2023-01-20T22:52:37.942Z,-28.97
2023-01-20T22:55:52.247Z,-28.96
2023-01-20T22:59:03.964Z,-28.94
2023-01-20T23:02:07.929Z,-29.03
2023-01-20T23:05:14.069Z,-29.08
2023-01-20T23:08:18.581Z,-29.22
2023-01-20T23:11:23.840Z,-29.27
2023-01-20T23:14:46.020Z,-29.32
2023-01-20T23:17:49.570Z,-29.45
2023-01-20T23:20:54.418Z,-29.55
2023-01-20T23:23:57.621Z,-29.58
2023-01-20T23:27:01.285Z,-29.62
2023-01-20T23:30:06.586Z,-29.67
2023-01-20T23:33:11.276Z,-29.63
2023-01-20T23:36:19.701Z,-29.60
2023-01-20T23:39:23.557Z,-29.67
2023-01-20T23:42:27.334Z,-29.83
2023-01-20T23:45:31.577Z,-29.94
2023-01-20T23:48:35.601Z,-30.00
2023-01-20T23:51:39.473Z,-30.08
2023-01-20T23:54:43.425Z,-30.15
2023-01-20T23:57:47.598Z,-30.21
